createdAt,value
2018-07-15T00:00:40.141Z,1007.58
2018-07-15T00:01:40.071Z,1007.59
2018-07-15T00:02:40.025Z,1007.59
2018-07-15T00:03:39.975Z,1007.62
2018-07-15T00:04:39.931Z,1007.60
2018-07-15T00:05:39.908Z,1007.60
2018-07-15T00:06:39.836Z,1007.59
2018-07-15T00:07:39.791Z,1007.58
2018-07-15T00:08:39.739Z,1007.58
2018-07-15T00:09:39.698Z,1007.52
2018-07-15T00:10:39.681Z,1007.54
2018-07-15T00:11:39.596Z,1007.58
2018-07-15T00:12:39.556Z,1007.58
2018-07-15T00:13:39.507Z,1007.55
2018-07-15T00:14:39.455Z,1007.55
2018-07-15T00:15:39.410Z,1007.54
2018-07-15T00:16:39.386Z,1007.54
2018-07-15T00:17:39.320Z,1007.54
2018-07-15T00:18:39.271Z,1007.56
2018-07-15T00:19:39.224Z,1007.55
2018-07-15T00:20:39.174Z,1007.52
2018-07-15T00:21:39.153Z,1007.54
2018-07-15T00:22:39.082Z,1007.53
2018-07-15T00:23:39.036Z,1007.54
2018-07-15T00:24:38.984Z,1007.53
2018-07-15T00:25:38.939Z,1007.55
2018-07-15T00:26:38.914Z,1007.59
2018-07-15T00:27:38.845Z,1007.62
2018-07-15T00:28:38.794Z,1007.58
2018-07-15T00:29:38.750Z,1007.59
2018-07-15T00:30:38.705Z,1007.60
2018-07-15T00:31:38.680Z,1007.57
2018-07-15T00:32:38.607Z,1007.57
2018-07-15T00:33:38.560Z,1007.55
2018-07-15T00:34:38.514Z,1007.55
2018-07-15T00:35:38.475Z,1007.57
2018-07-15T00:36:38.441Z,1007.57
2018-07-15T00:37:38.375Z,1007.51
2018-07-15T00:38:38.327Z,1007.53
2018-07-15T00:39:38.278Z,1007.54
2018-07-15T00:40:38.230Z,1007.52
2018-07-15T00:41:38.209Z,1007.56
2018-07-15T00:42:38.138Z,1007.59
2018-07-15T00:43:38.086Z,1007.58
2018-07-15T00:44:38.039Z,1007.56
2018-07-15T00:45:37.994Z,1007.57
2018-07-15T00:46:37.968Z,1007.58
2018-07-15T00:47:37.903Z,1007.56
2018-07-15T00:48:37.849Z,1007.58
2018-07-15T00:49:37.805Z,1007.61
2018-07-15T00:50:37.755Z,1007.57
2018-07-15T00:51:37.770Z,1007.63
2018-07-15T00:52:37.661Z,1007.56
2018-07-15T00:53:37.614Z,1007.59
2018-07-15T00:54:37.567Z,1007.59
2018-07-15T00:55:37.517Z,1007.58
2018-07-15T00:56:37.496Z,1007.60
2018-07-15T00:57:37.424Z,1007.62
2018-07-15T00:58:37.379Z,1007.63
2018-07-15T00:59:37.330Z,1007.68
2018-07-15T01:00:37.285Z,1007.66
2018-07-15T01:01:37.262Z,1007.63
2018-07-15T01:02:37.190Z,1007.67
2018-07-15T01:03:37.143Z,1007.69
2018-07-15T01:04:37.095Z,1007.64
2018-07-15T01:05:37.052Z,1007.69
2018-07-15T01:06:37.021Z,1007.71
2018-07-15T01:07:36.950Z,1007.72
2018-07-15T01:08:36.902Z,1007.68
2018-07-15T01:09:36.860Z,1007.70
2018-07-15T01:10:36.809Z,1007.73
2018-07-15T01:11:36.794Z,1007.65
2018-07-15T01:12:36.716Z,1007.70
2018-07-15T01:13:36.665Z,1007.68
2018-07-15T01:14:36.620Z,1007.70
2018-07-15T01:15:36.574Z,1007.69
2018-07-15T01:16:36.551Z,1007.67
2018-07-15T01:17:36.480Z,1007.64
2018-07-15T01:18:36.431Z,1007.65
2018-07-15T01:19:36.388Z,1007.65
2018-07-15T01:20:36.335Z,1007.63
2018-07-15T01:21:36.313Z,1007.63
2018-07-15T01:22:36.241Z,1007.65
2018-07-15T01:23:36.197Z,1007.65
2018-07-15T01:24:36.149Z,1007.64
2018-07-15T01:25:36.097Z,1007.63
2018-07-15T01:26:36.090Z,1007.60
2018-07-15T01:27:36.005Z,1007.65
2018-07-15T01:28:35.960Z,1007.59
2018-07-15T01:29:35.911Z,1007.61
2018-07-15T01:30:35.862Z,1007.62
2018-07-15T01:31:35.847Z,1007.64
2018-07-15T01:32:35.764Z,1007.59
2018-07-15T01:33:35.724Z,1007.62
2018-07-15T01:34:35.673Z,1007.64
2018-07-15T01:35:35.623Z,1007.64
2018-07-15T01:36:35.597Z,1007.63
2018-07-15T01:37:35.532Z,1007.62
2018-07-15T01:38:35.481Z,1007.64
2018-07-15T01:39:35.436Z,1007.62
2018-07-15T01:40:35.387Z,1007.59
2018-07-15T01:41:35.382Z,1007.58
2018-07-15T01:42:35.297Z,1007.56
2018-07-15T01:43:35.249Z,1007.56
2018-07-15T01:44:35.197Z,1007.59
2018-07-15T01:45:35.150Z,1007.56
2018-07-15T01:46:35.099Z,1007.56
2018-07-15T01:47:35.077Z,1007.58
2018-07-15T01:48:35.006Z,1007.58
2018-07-15T01:49:34.963Z,1007.55
2018-07-15T01:50:34.912Z,1007.55
2018-07-15T01:51:34.865Z,1007.56
2018-07-15T01:52:34.838Z,1007.57
2018-07-15T01:53:34.769Z,1007.58
2018-07-15T01:54:34.727Z,1007.57
2018-07-15T01:55:34.674Z,1007.55
2018-07-15T01:56:34.628Z,1007.53
2018-07-15T01:57:34.601Z,1007.55
2018-07-15T01:58:34.538Z,1007.50
2018-07-15T01:59:34.484Z,1007.50
2018-07-15T02:00:34.440Z,1007.50
2018-07-15T02:01:34.389Z,1007.53
2018-07-15T02:02:34.381Z,1007.52
2018-07-15T02:03:34.294Z,1007.52
2018-07-15T02:04:34.245Z,1007.52
2018-07-15T02:05:34.198Z,1007.55
2018-07-15T02:06:34.152Z,1007.53
2018-07-15T02:07:34.131Z,1007.53
2018-07-15T02:08:34.056Z,1007.53
2018-07-15T02:09:34.011Z,1007.55
2018-07-15T02:10:33.958Z,1007.52
2018-07-15T02:11:33.913Z,1007.53
2018-07-15T02:12:33.891Z,1007.55
2018-07-15T02:13:33.816Z,1007.48
2018-07-15T02:14:33.798Z,1007.47
2018-07-15T02:15:33.730Z,1007.47
2018-07-15T02:16:33.673Z,1007.46
2018-07-15T02:17:33.647Z,1007.42
2018-07-15T02:18:33.581Z,1007.43
2018-07-15T02:19:33.533Z,1007.43
2018-07-15T02:20:33.494Z,1007.42
2018-07-15T02:21:33.439Z,1007.41
2018-07-15T02:22:33.407Z,1007.42
2018-07-15T02:23:33.339Z,1007.40
2018-07-15T02:24:33.291Z,1007.40
2018-07-15T02:25:33.252Z,1007.39
2018-07-15T02:26:33.195Z,1007.40
2018-07-15T02:27:33.174Z,1007.40
2018-07-15T02:28:33.103Z,1007.39
2018-07-15T02:29:33.055Z,1007.37
2018-07-15T02:30:33.009Z,1007.39
2018-07-15T02:31:32.972Z,1007.41
2018-07-15T02:32:32.946Z,1007.41
2018-07-15T02:33:32.874Z,1007.40
2018-07-15T02:34:32.813Z,1007.41
2018-07-15T02:35:32.775Z,1007.43
2018-07-15T02:36:32.781Z,1007.41
2018-07-15T02:37:32.695Z,1007.43
2018-07-15T02:38:32.630Z,1007.46
2018-07-15T02:39:32.587Z,1007.42
2018-07-15T02:40:32.531Z,1007.46
2018-07-15T02:41:32.479Z,1007.49
2018-07-15T02:42:32.464Z,1007.45
2018-07-15T02:43:32.383Z,1007.46
2018-07-15T02:44:32.334Z,1007.42
2018-07-15T02:45:32.287Z,1007.44
2018-07-15T02:46:32.244Z,1007.42
2018-07-15T02:47:32.220Z,1007.42
2018-07-15T02:48:32.147Z,1007.39
2018-07-15T02:49:32.099Z,1007.40
2018-07-15T02:50:32.050Z,1007.39
2018-07-15T02:51:32.003Z,1007.37
2018-07-15T02:52:31.980Z,1007.40
2018-07-15T02:53:31.909Z,1007.39
2018-07-15T02:54:31.856Z,1007.40
2018-07-15T02:55:31.808Z,1007.37
2018-07-15T02:56:31.762Z,1007.36
2018-07-15T02:57:31.745Z,1007.38
2018-07-15T02:58:31.663Z,1007.42
2018-07-15T02:59:31.619Z,1007.36
2018-07-15T03:00:31.569Z,1007.40
2018-07-15T03:01:31.518Z,1007.38
2018-07-15T03:02:31.500Z,1007.38
2018-07-15T03:03:31.421Z,1007.40
2018-07-15T03:04:31.376Z,1007.41
2018-07-15T03:05:31.326Z,1007.39
2018-07-15T03:06:31.297Z,1007.38
2018-07-15T03:07:31.257Z,1007.37
2018-07-15T03:08:31.179Z,1007.36
2018-07-15T03:09:31.133Z,1007.37
2018-07-15T03:10:31.085Z,1007.37
2018-07-15T03:11:31.040Z,1007.34
2018-07-15T03:12:31.019Z,1007.35
2018-07-15T03:13:30.941Z,1007.33
2018-07-15T03:14:30.892Z,1007.32
2018-07-15T03:15:30.842Z,1007.31
2018-07-15T03:16:30.795Z,1007.30
2018-07-15T03:17:30.776Z,1007.28
2018-07-15T03:18:30.724Z,1007.26
2018-07-15T03:19:30.660Z,1007.27
2018-07-15T03:20:30.601Z,1007.26
2018-07-15T03:21:30.559Z,1007.24
2018-07-15T03:22:30.505Z,1007.25
2018-07-15T03:23:30.481Z,1007.24
2018-07-15T03:24:30.404Z,1007.21
2018-07-15T03:25:30.362Z,1007.21
2018-07-15T03:26:30.312Z,1007.18
2018-07-15T03:27:30.270Z,1007.20
2018-07-15T03:28:30.236Z,1007.17
2018-07-15T03:29:30.165Z,1007.16
2018-07-15T03:30:30.120Z,1007.17
2018-07-15T03:31:30.072Z,1007.20
2018-07-15T03:32:30.024Z,1007.18
2018-07-15T03:33:29.995Z,1007.16
2018-07-15T03:34:29.924Z,1007.14
2018-07-15T03:35:29.880Z,1007.15
2018-07-15T03:36:29.828Z,1007.17
2018-07-15T03:37:29.784Z,1007.16
2018-07-15T03:38:29.758Z,1007.18
2018-07-15T03:39:29.688Z,1007.18
2018-07-15T03:40:29.634Z,1007.17
2018-07-15T03:41:29.591Z,1007.16
2018-07-15T03:42:29.544Z,1007.15
2018-07-15T03:43:29.526Z,1007.19
2018-07-15T03:44:29.442Z,1007.16
2018-07-15T03:45:29.390Z,1007.13
2018-07-15T03:46:29.348Z,1007.14
2018-07-15T03:47:29.298Z,1007.15
2018-07-15T03:48:29.277Z,1007.16
2018-07-15T03:49:29.209Z,1007.16
2018-07-15T03:50:29.151Z,1007.15
2018-07-15T03:51:29.107Z,1007.17
2018-07-15T03:52:29.057Z,1007.16
2018-07-15T03:53:29.033Z,1007.18
2018-07-15T03:54:28.959Z,1007.16
2018-07-15T03:55:28.914Z,1007.13
2018-07-15T03:56:28.861Z,1007.16
2018-07-15T03:57:28.818Z,1007.16
2018-07-15T03:58:28.798Z,1007.16
2018-07-15T03:59:28.717Z,1007.15
2018-07-15T04:00:28.668Z,1007.09
2018-07-15T04:01:28.681Z,1007.10
2018-07-15T04:02:28.572Z,1007.11
2018-07-15T04:03:28.550Z,1007.12
2018-07-15T04:04:28.474Z,1007.11
2018-07-15T04:05:28.422Z,1007.09
2018-07-15T04:06:28.381Z,1007.14
2018-07-15T04:07:28.332Z,1007.09
2018-07-15T04:08:28.310Z,1007.10
2018-07-15T04:09:28.237Z,1007.12
2018-07-15T04:10:28.192Z,1007.12
2018-07-15T04:11:28.136Z,1007.11
2018-07-15T04:12:28.089Z,1007.11
2018-07-15T04:13:28.061Z,1007.09
2018-07-15T04:14:27.990Z,1007.11
2018-07-15T04:15:27.942Z,1007.08
2018-07-15T04:16:27.892Z,1007.05
2018-07-15T04:17:27.845Z,1007.04
2018-07-15T04:18:27.824Z,1007.05
2018-07-15T04:19:27.749Z,1007.03
2018-07-15T04:20:27.708Z,1007.05
2018-07-15T04:21:27.656Z,1007.06
2018-07-15T04:22:27.605Z,1007.07
2018-07-15T04:23:27.578Z,1007.08
2018-07-15T04:24:27.509Z,1007.06
2018-07-15T04:25:27.467Z,1007.05
2018-07-15T04:26:27.411Z,1007.05
2018-07-15T04:27:27.366Z,1007.05
2018-07-15T04:28:27.340Z,1007.06
2018-07-15T04:29:27.269Z,1007.06
2018-07-15T04:30:27.216Z,1007.08
2018-07-15T04:31:27.171Z,1007.10
2018-07-15T04:32:27.120Z,1007.09
2018-07-15T04:33:27.103Z,1007.09
2018-07-15T04:34:27.026Z,1007.05
2018-07-15T04:35:26.975Z,1007.07
2018-07-15T04:36:26.932Z,1006.99
2018-07-15T04:37:26.886Z,1007.00
2018-07-15T04:38:26.855Z,1007.06
2018-07-15T04:39:26.788Z,1007.02
2018-07-15T04:40:26.740Z,1007.02
2018-07-15T04:41:26.689Z,1006.99
2018-07-15T04:42:26.648Z,1007.03
2018-07-15T04:43:26.666Z,1007.01
2018-07-15T04:44:26.542Z,1006.98
2018-07-15T04:45:26.501Z,1007.03
2018-07-15T04:46:26.453Z,1007.03
2018-07-15T04:47:26.409Z,1007.06
2018-07-15T04:48:26.359Z,1007.05
2018-07-15T04:49:26.329Z,1007.03
2018-07-15T04:50:26.259Z,1007.01
2018-07-15T04:51:26.222Z,1007.03
2018-07-15T04:52:26.169Z,1007.04
2018-07-15T04:53:26.115Z,1007.08
2018-07-15T04:54:26.096Z,1007.04
2018-07-15T04:55:26.029Z,1007.06
2018-07-15T04:56:25.976Z,1007.04
2018-07-15T04:57:25.934Z,1007.03
2018-07-15T04:58:25.885Z,1006.99
2018-07-15T04:59:25.862Z,1007.06
2018-07-15T05:00:25.786Z,1007.06
2018-07-15T05:01:25.746Z,1007.05
2018-07-15T05:02:25.695Z,1007.07
2018-07-15T05:03:25.647Z,1007.04
2018-07-15T05:04:25.623Z,1007.07
2018-07-15T05:05:25.550Z,1007.06
2018-07-15T05:06:25.507Z,1007.08
2018-07-15T05:07:25.457Z,1007.02
2018-07-15T05:08:25.407Z,1007.09
2018-07-15T05:09:25.394Z,1007.07
2018-07-15T05:10:25.322Z,1007.09
2018-07-15T05:11:25.334Z,1007.06
2018-07-15T05:12:25.228Z,1007.08
2018-07-15T05:13:25.177Z,1007.07
2018-07-15T05:14:25.155Z,1007.07
2018-07-15T05:15:25.098Z,1007.10
2018-07-15T05:16:25.040Z,1007.10
2018-07-15T05:17:24.997Z,1007.10
2018-07-15T05:18:24.991Z,1007.09
2018-07-15T05:19:24.924Z,1007.09
2018-07-15T05:20:24.851Z,1007.11
2018-07-15T05:21:24.803Z,1007.14
2018-07-15T05:22:24.764Z,1007.15
2018-07-15T05:23:24.713Z,1007.17
2018-07-15T05:24:24.697Z,1007.12
2018-07-15T05:25:24.617Z,1007.17
2018-07-15T05:26:24.571Z,1007.21
2018-07-15T05:27:24.529Z,1007.23
2018-07-15T05:28:24.479Z,1007.17
2018-07-15T05:29:24.462Z,1007.24
2018-07-15T05:30:24.388Z,1007.22
2018-07-15T05:31:24.344Z,1007.21
2018-07-15T05:32:24.297Z,1007.23
2018-07-15T05:33:24.248Z,1007.23
2018-07-15T05:34:24.227Z,1007.25
2018-07-15T05:35:24.161Z,1007.26
2018-07-15T05:36:24.109Z,1007.27
2018-07-15T05:37:24.064Z,1007.29
2018-07-15T05:38:24.021Z,1007.28
2018-07-15T05:39:24.001Z,1007.30
2018-07-15T05:40:23.926Z,1007.29
2018-07-15T05:41:23.896Z,1007.26
2018-07-15T05:42:23.838Z,1007.30
2018-07-15T05:43:23.801Z,1007.27
2018-07-15T05:44:23.817Z,1007.30
2018-07-15T05:45:23.701Z,1007.27
2018-07-15T05:46:23.654Z,1007.30
2018-07-15T05:47:23.610Z,1007.30
2018-07-15T05:48:23.565Z,1007.28
2018-07-15T05:49:23.544Z,1007.29
2018-07-15T05:50:23.472Z,1007.28
2018-07-15T05:51:23.427Z,1007.28
2018-07-15T05:52:23.381Z,1007.30
2018-07-15T05:53:23.339Z,1007.30
2018-07-15T05:54:23.313Z,1007.32
2018-07-15T05:55:23.246Z,1007.35
2018-07-15T05:56:23.202Z,1007.35
2018-07-15T05:57:23.166Z,1007.37
2018-07-15T05:58:23.109Z,1007.34
2018-07-15T05:59:23.084Z,1007.36
2018-07-15T06:00:23.014Z,1007.34
2018-07-15T06:01:22.972Z,1007.33
2018-07-15T06:02:22.930Z,1007.33
2018-07-15T06:03:22.931Z,1007.34
2018-07-15T06:04:22.873Z,1007.32
2018-07-15T06:05:22.791Z,1007.34
2018-07-15T06:06:22.749Z,1007.36
2018-07-15T06:07:22.702Z,1007.35
2018-07-15T06:08:22.654Z,1007.37
2018-07-15T06:09:22.633Z,1007.36
2018-07-15T06:10:22.564Z,1007.34
2018-07-15T06:11:22.518Z,1007.36
2018-07-15T06:12:22.469Z,1007.37
2018-07-15T06:13:22.432Z,1007.38
2018-07-15T06:14:22.405Z,1007.38
2018-07-15T06:15:22.337Z,1007.38
2018-07-15T06:16:22.291Z,1007.43
2018-07-15T06:17:22.249Z,1007.40
2018-07-15T06:18:22.203Z,1007.41
2018-07-15T06:19:22.184Z,1007.42
2018-07-15T06:20:22.113Z,1007.41
2018-07-15T06:21:22.067Z,1007.43
2018-07-15T06:22:22.021Z,1007.44
2018-07-15T06:23:21.975Z,1007.43
2018-07-15T06:24:21.941Z,1007.47
2018-07-15T06:25:21.911Z,1007.41
2018-07-15T06:26:21.841Z,1007.45
2018-07-15T06:27:21.796Z,1007.47
2018-07-15T06:28:21.750Z,1007.49
2018-07-15T06:29:21.708Z,1007.47
2018-07-15T06:30:21.691Z,1007.47
2018-07-15T06:31:21.615Z,1007.45
2018-07-15T06:32:21.581Z,1007.46
2018-07-15T06:33:21.522Z,1007.44
2018-07-15T06:34:21.480Z,1007.44
2018-07-15T06:35:21.457Z,1007.46
2018-07-15T06:36:21.398Z,1007.46
2018-07-15T06:37:21.348Z,1007.44
2018-07-15T06:38:21.313Z,1007.41
2018-07-15T06:39:21.265Z,1007.44
2018-07-15T06:40:21.238Z,1007.40
2018-07-15T06:41:21.169Z,1007.43
2018-07-15T06:42:21.125Z,1007.36
2018-07-15T06:43:21.079Z,1007.37
2018-07-15T06:44:21.036Z,1007.40
2018-07-15T06:45:21.019Z,1007.36
2018-07-15T06:46:20.946Z,1007.37
2018-07-15T06:47:20.901Z,1007.37
2018-07-15T06:48:20.851Z,1007.32
2018-07-15T06:49:20.911Z,1007.33
2018-07-15T06:50:20.789Z,1007.39
2018-07-15T06:51:20.721Z,1007.36
2018-07-15T06:52:20.673Z,1007.37
2018-07-15T06:53:20.637Z,1007.36
2018-07-15T06:54:20.587Z,1007.39
2018-07-15T06:55:20.567Z,1007.40
2018-07-15T06:56:20.499Z,1007.40
2018-07-15T06:57:20.460Z,1007.38
2018-07-15T06:58:20.407Z,1007.40
2018-07-15T06:59:20.363Z,1007.43
2018-07-15T07:00:20.346Z,1007.42
2018-07-15T07:01:20.274Z,1007.42
2018-07-15T07:02:20.232Z,1007.42
2018-07-15T07:03:20.184Z,1007.38
2018-07-15T07:04:20.138Z,1007.36
2018-07-15T07:05:20.132Z,1007.41
2018-07-15T07:06:20.053Z,1007.40
2018-07-15T07:07:20.028Z,1007.37
2018-07-15T07:08:19.963Z,1007.36
2018-07-15T07:09:19.919Z,1007.36
2018-07-15T07:10:19.875Z,1007.35
2018-07-15T07:11:19.858Z,1007.36
2018-07-15T07:12:19.788Z,1007.34
2018-07-15T07:13:19.741Z,1007.34
2018-07-15T07:14:19.811Z,1007.37
2018-07-15T07:15:19.654Z,1007.37
2018-07-15T07:16:19.638Z,1007.36
2018-07-15T07:17:19.564Z,1007.33
2018-07-15T07:18:19.522Z,1007.34
2018-07-15T07:19:19.476Z,1007.37
2018-07-15T07:20:19.431Z,1007.36
2018-07-15T07:21:19.410Z,1007.38
2018-07-15T07:22:19.344Z,1007.40
2018-07-15T07:23:19.298Z,1007.40
2018-07-15T07:24:19.254Z,1007.36
2018-07-15T07:25:19.211Z,1007.38
2018-07-15T07:26:19.187Z,1007.37
2018-07-15T07:27:19.126Z,1007.41
2018-07-15T07:28:19.081Z,1007.40
2018-07-15T07:29:19.042Z,1007.40
2018-07-15T07:30:18.994Z,1007.39
2018-07-15T07:31:18.984Z,1007.37
2018-07-15T07:32:18.907Z,1007.41
2018-07-15T07:33:18.852Z,1007.38
2018-07-15T07:34:18.812Z,1007.39
2018-07-15T07:35:18.795Z,1007.40
2018-07-15T07:36:18.745Z,1007.38
2018-07-15T07:37:18.677Z,1007.37
2018-07-15T07:38:18.650Z,1007.34
2018-07-15T07:39:18.589Z,1007.36
2018-07-15T07:40:18.547Z,1007.35
2018-07-15T07:41:18.570Z,1007.34
2018-07-15T07:42:18.460Z,1007.34
2018-07-15T07:43:18.417Z,1007.39
2018-07-15T07:44:18.373Z,1007.39
2018-07-15T07:45:18.324Z,1007.38
2018-07-15T07:46:18.305Z,1007.41
2018-07-15T07:47:18.239Z,1007.42
2018-07-15T07:48:18.195Z,1007.43
2018-07-15T07:49:18.147Z,1007.43
2018-07-15T07:50:18.105Z,1007.42
2018-07-15T07:51:18.083Z,1007.39
2018-07-15T07:52:18.021Z,1007.43
2018-07-15T07:53:18.012Z,1007.41
2018-07-15T07:54:17.928Z,1007.42
2018-07-15T07:55:17.883Z,1007.40
2018-07-15T07:56:17.862Z,1007.38
2018-07-15T07:57:17.806Z,1007.38
2018-07-15T07:58:17.751Z,1007.37
2018-07-15T07:59:17.709Z,1007.40
2018-07-15T08:00:17.664Z,1007.41
2018-07-15T08:01:17.650Z,1007.42
2018-07-15T08:02:17.581Z,1007.45
2018-07-15T08:03:17.538Z,1007.42
2018-07-15T08:04:17.481Z,1007.44
2018-07-15T08:05:17.448Z,1007.40
2018-07-15T08:06:17.476Z,1007.44
2018-07-15T08:07:17.354Z,1007.47
2018-07-15T08:08:17.308Z,1007.42
2018-07-15T08:09:17.269Z,1007.40
2018-07-15T08:10:17.228Z,1007.42
2018-07-15T08:11:17.202Z,1007.43
2018-07-15T08:12:17.142Z,1007.44
2018-07-15T08:13:17.096Z,1007.42
2018-07-15T08:14:17.053Z,1007.39
2018-07-15T08:15:17.021Z,1007.36
2018-07-15T08:16:16.982Z,1007.39
2018-07-15T08:17:16.915Z,1007.38
2018-07-15T08:18:16.881Z,1007.38
2018-07-15T08:19:16.832Z,1007.40
2018-07-15T08:20:16.787Z,1007.36
2018-07-15T08:21:16.769Z,1007.34
2018-07-15T08:22:16.701Z,1007.38
2018-07-15T08:23:16.656Z,1007.36
2018-07-15T08:24:16.611Z,1007.39
2018-07-15T08:25:16.570Z,1007.41
2018-07-15T08:26:16.551Z,1007.37
2018-07-15T08:27:16.481Z,1007.32
2018-07-15T08:28:16.466Z,1007.38
2018-07-15T08:29:16.395Z,1007.37
2018-07-15T08:30:16.350Z,1007.39
2018-07-15T08:31:16.329Z,1007.36
2018-07-15T08:32:16.266Z,1007.38
2018-07-15T08:33:16.222Z,1007.43
2018-07-15T08:34:16.179Z,1007.43
2018-07-15T08:35:16.131Z,1007.39
2018-07-15T08:36:16.112Z,1007.42
2018-07-15T08:37:16.046Z,1007.35
2018-07-15T08:38:16.005Z,1007.39
2018-07-15T08:39:15.960Z,1007.37
2018-07-15T08:40:15.918Z,1007.37
2018-07-15T08:41:15.913Z,1007.37
2018-07-15T08:42:15.830Z,1007.38
2018-07-15T08:43:15.786Z,1007.41
2018-07-15T08:44:15.742Z,1007.40
2018-07-15T08:45:15.700Z,1007.40
2018-07-15T08:46:15.659Z,1007.41
2018-07-15T08:47:15.638Z,1007.36
2018-07-15T08:48:15.566Z,1007.41
2018-07-15T08:49:15.526Z,1007.38
2018-07-15T08:50:15.478Z,1007.35
2018-07-15T08:51:15.437Z,1007.40
2018-07-15T08:52:15.471Z,1007.38
2018-07-15T08:53:15.351Z,1007.34
2018-07-15T08:54:15.307Z,1007.32
2018-07-15T08:55:15.268Z,1007.33
2018-07-15T08:56:15.243Z,1007.34
2018-07-15T08:57:15.203Z,1007.32
2018-07-15T08:58:15.136Z,1007.36
2018-07-15T08:59:15.091Z,1007.30
2018-07-15T09:00:15.048Z,1007.38
2018-07-15T09:01:15.006Z,1007.36
2018-07-15T09:02:14.985Z,1007.41
2018-07-15T09:03:14.945Z,1007.40
2018-07-15T09:04:14.875Z,1007.37
2018-07-15T09:05:14.832Z,1007.35
2018-07-15T09:06:14.791Z,1007.31
2018-07-15T09:07:14.770Z,1007.29
2018-07-15T09:08:14.706Z,1007.29
2018-07-15T09:09:14.657Z,1007.30
2018-07-15T09:10:14.618Z,1007.26
2018-07-15T09:11:14.572Z,1007.24
2018-07-15T09:12:14.556Z,1007.31
2018-07-15T09:13:14.485Z,1007.25
2018-07-15T09:14:14.443Z,1007.29
2018-07-15T09:15:14.403Z,1007.27
2018-07-15T09:16:14.355Z,1007.30
2018-07-15T09:17:14.343Z,1007.28
2018-07-15T09:18:14.272Z,1007.28
2018-07-15T09:19:14.228Z,1007.25
2018-07-15T09:20:14.186Z,1007.30
2018-07-15T09:21:14.202Z,1007.31
2018-07-15T09:22:14.127Z,1007.25
2018-07-15T09:23:14.061Z,1007.22
2018-07-15T09:24:14.009Z,1007.19
2018-07-15T09:25:13.968Z,1007.21
2018-07-15T09:26:13.930Z,1007.19
2018-07-15T09:27:13.911Z,1007.22
2018-07-15T09:28:13.840Z,1007.20
2018-07-15T09:29:13.796Z,1007.22
2018-07-15T09:30:13.757Z,1007.21
2018-07-15T09:31:13.710Z,1007.20
2018-07-15T09:32:13.691Z,1007.21
2018-07-15T09:33:13.622Z,1007.18
2018-07-15T09:34:13.581Z,1007.17
2018-07-15T09:35:13.581Z,1007.18
2018-07-15T09:36:13.494Z,1007.18
2018-07-15T09:37:13.473Z,1007.22
2018-07-15T09:38:13.404Z,1007.20
2018-07-15T09:39:13.360Z,1007.20
2018-07-15T09:40:13.316Z,1007.22
2018-07-15T09:41:13.275Z,1007.20
2018-07-15T09:42:13.252Z,1007.21
2018-07-15T09:43:13.186Z,1007.20
2018-07-15T09:44:13.143Z,1007.27
2018-07-15T09:45:13.100Z,1007.25
2018-07-15T09:46:13.058Z,1007.23
2018-07-15T09:47:13.034Z,1007.22
2018-07-15T09:48:12.975Z,1007.21
2018-07-15T09:49:12.927Z,1007.23
2018-07-15T09:50:12.887Z,1007.19
2018-07-15T09:51:12.845Z,1007.17
2018-07-15T09:52:12.827Z,1007.13
2018-07-15T09:53:12.757Z,1007.11
2018-07-15T09:54:12.712Z,1007.18
2018-07-15T09:55:12.673Z,1007.17
2018-07-15T09:56:12.624Z,1007.14
2018-07-15T09:57:12.609Z,1007.13
2018-07-15T09:58:12.605Z,1007.15
2018-07-15T09:59:12.503Z,1007.11
2018-07-15T10:00:12.450Z,1007.16
2018-07-15T10:01:12.417Z,1007.15
2018-07-15T10:02:12.397Z,1007.16
2018-07-15T10:03:12.325Z,1007.15
2018-07-15T10:04:12.284Z,1007.14
2018-07-15T10:05:12.244Z,1007.15
2018-07-15T10:06:12.203Z,1007.08
2018-07-15T10:07:12.153Z,1007.10
2018-07-15T10:08:12.134Z,1007.14
2018-07-15T10:09:12.066Z,1007.10
2018-07-15T10:10:12.027Z,1007.09
2018-07-15T10:11:11.980Z,1007.05
2018-07-15T10:12:11.941Z,1007.04
2018-07-15T10:13:11.919Z,1007.04
2018-07-15T10:14:11.861Z,1007.03
2018-07-15T10:15:11.824Z,1007.03
2018-07-15T10:16:11.774Z,1007.03
2018-07-15T10:17:11.733Z,1007.05
2018-07-15T10:18:11.709Z,1007.05
2018-07-15T10:19:11.647Z,1006.96
2018-07-15T10:20:11.596Z,1006.96
2018-07-15T10:21:11.560Z,1006.98
2018-07-15T10:22:11.513Z,1007.00
2018-07-15T10:23:11.492Z,1007.01
2018-07-15T10:24:11.440Z,1006.96
2018-07-15T10:25:11.383Z,1006.97
2018-07-15T10:26:11.345Z,1006.97
2018-07-15T10:27:11.300Z,1007.03
2018-07-15T10:28:11.281Z,1007.01
2018-07-15T10:29:11.217Z,1006.98
2018-07-15T10:30:11.178Z,1006.97
2018-07-15T10:31:11.132Z,1007.04
2018-07-15T10:32:11.090Z,1007.01
2018-07-15T10:33:11.136Z,1007.00
2018-07-15T10:34:11.016Z,1006.95
2018-07-15T10:35:10.985Z,1006.97
2018-07-15T10:36:10.921Z,1006.93
2018-07-15T10:37:10.873Z,1006.90
2018-07-15T10:38:10.861Z,1006.88
2018-07-15T10:39:10.787Z,1006.86
2018-07-15T10:40:10.748Z,1006.91
2018-07-15T10:41:10.730Z,1006.93
2018-07-15T10:42:10.667Z,1006.93
2018-07-15T10:43:10.643Z,1006.86
2018-07-15T10:44:10.581Z,1006.84
2018-07-15T10:45:10.552Z,1006.88
2018-07-15T10:46:10.491Z,1006.89
2018-07-15T10:47:10.455Z,1006.87
2018-07-15T10:48:10.436Z,1006.88
2018-07-15T10:49:10.371Z,1006.88
2018-07-15T10:50:10.327Z,1006.84
2018-07-15T10:51:10.279Z,1006.83
2018-07-15T10:52:10.240Z,1006.85
2018-07-15T10:53:10.220Z,1006.81
2018-07-15T10:54:10.151Z,1006.80
2018-07-15T10:55:10.127Z,1006.78
2018-07-15T10:56:10.078Z,1006.77
2018-07-15T10:57:10.028Z,1006.74
2018-07-15T10:58:10.005Z,1006.75
2018-07-15T10:59:09.940Z,1006.80
2018-07-15T11:00:09.896Z,1006.76
2018-07-15T11:01:10.015Z,1006.78
2018-07-15T11:02:09.825Z,1006.78
2018-07-15T11:03:09.800Z,1006.79
2018-07-15T11:04:09.728Z,1006.77
2018-07-15T11:05:09.723Z,1006.75
2018-07-15T11:06:09.676Z,1006.70
2018-07-15T11:07:09.603Z,1006.69
2018-07-15T11:08:09.592Z,1006.67
2018-07-15T11:09:09.515Z,1006.67
2018-07-15T11:10:09.474Z,1006.66
2018-07-15T11:11:09.433Z,1006.68
2018-07-15T11:12:09.390Z,1006.66
2018-07-15T11:13:09.374Z,1006.65
2018-07-15T11:14:09.457Z,1006.62
2018-07-15T11:15:09.263Z,1006.60
2018-07-15T11:16:09.223Z,1006.58
2018-07-15T11:17:09.179Z,1006.56
2018-07-15T11:18:09.160Z,1006.53
2018-07-15T11:19:09.100Z,1006.54
2018-07-15T11:20:09.056Z,1006.53
2018-07-15T11:21:09.010Z,1006.56
2018-07-15T11:22:08.967Z,1006.57
2018-07-15T11:23:08.954Z,1006.54
2018-07-15T11:24:08.885Z,1006.56
2018-07-15T11:25:08.843Z,1006.56
2018-07-15T11:26:08.871Z,1006.56
2018-07-15T11:27:08.755Z,1006.51
2018-07-15T11:28:08.743Z,1006.56
2018-07-15T11:29:08.670Z,1006.52
2018-07-15T11:30:08.629Z,1006.51
2018-07-15T11:31:08.647Z,1006.52
2018-07-15T11:32:08.545Z,1006.49
2018-07-15T11:33:08.500Z,1006.52
2018-07-15T11:34:08.483Z,1006.46
2018-07-15T11:35:08.425Z,1006.48
2018-07-15T11:36:08.379Z,1006.44
2018-07-15T11:37:08.331Z,1006.47
2018-07-15T11:38:08.296Z,1006.48
2018-07-15T11:39:08.311Z,1006.46
2018-07-15T11:40:08.211Z,1006.44
2018-07-15T11:41:08.166Z,1006.46
2018-07-15T11:42:08.121Z,1006.45
2018-07-15T11:43:08.078Z,1006.49
2018-07-15T11:44:08.060Z,1006.51
2018-07-15T11:45:07.996Z,1006.47
2018-07-15T11:46:07.953Z,1006.43
2018-07-15T11:47:07.912Z,1006.50
2018-07-15T11:48:07.920Z,1006.45
2018-07-15T11:49:07.851Z,1006.43
2018-07-15T11:50:07.785Z,1006.47
2018-07-15T11:51:07.744Z,1006.45
2018-07-15T11:52:07.697Z,1006.44
2018-07-15T11:53:07.653Z,1006.45
2018-07-15T11:54:07.637Z,1006.43
2018-07-15T11:55:07.572Z,1006.39
2018-07-15T11:56:07.527Z,1006.37
2018-07-15T11:57:07.484Z,1006.40
2018-07-15T11:58:07.443Z,1006.36
2018-07-15T11:59:07.424Z,1006.35
2018-07-15T12:00:07.362Z,1006.33
2018-07-15T12:01:07.314Z,1006.36
2018-07-15T12:02:07.271Z,1006.31
2018-07-15T12:03:07.238Z,1006.31
2018-07-15T12:04:07.209Z,1006.33
2018-07-15T12:05:07.151Z,1006.38